Time;durP1;ratioP1;P1;durP2;ratioP2;P2;SDS_P1;SDS_P2;PMS_P1;PMS_P2;Temp;Humidity;BMP_temperature;BMP_pressure;BME280_temperature;BME280_humidity;BME280_pressure;Samples;Min_cycle;Max_cycle;Signal;HPM_P1;HPM_P2
2022/11/29 00:01:12;;;;;;;101.43;53.28;;;0.00;99.90;;;;;;5093322;28;20028;-52
2022/11/29 00:03:38;;;;;;;97.63;49.38;;;-0.10;99.90;;;;;;5093992;28;20044;-52
2022/11/29 00:06:10;;;;;;;95.38;51.05;;;-0.10;99.90;;;;;;5094368;28;20060;-52
2022/11/29 00:08:36;;;;;;;98.97;49.05;;;-0.10;99.90;;;;;;5094249;28;20030;-52
2022/11/29 00:14:05;;;;;;;99.65;48.85;;;-0.10;99.90;;;;;;5094417;28;20137;-54
2022/11/29 00:16:31;;;;;;;109.25;47.03;;;-0.10;99.90;;;;;;5093958;28;20543;-52
2022/11/29 00:18:57;;;;;;;95.82;46.47;;;-0.10;99.90;;;;;;5093996;28;20103;-53
2022/11/29 00:21:22;;;;;;;96.80;48.22;;;-0.10;99.90;;;;;;5094278;28;20498;-51
2022/11/29 00:23:48;;;;;;;97.68;47.38;;;-0.10;99.90;;;;;;5093857;28;20494;-53
2022/11/29 00:26:13;;;;;;;94.75;46.05;;;-0.10;99.90;;;;;;5075642;28;20032;-53
2022/11/29 00:28:39;;;;;;;95.63;47.55;;;-0.10;99.90;;;;;;5093574;28;20055;-54
2022/11/29 00:31:21;;;;;;;95.35;47.50;;;-0.10;99.90;;;;;;5093688;28;20055;-53
2022/11/29 00:33:47;;;;;;;99.55;49.72;;;-0.10;99.90;;;;;;5093551;28;20044;-52
2022/11/29 00:36:13;;;;;;;93.75;47.78;;;-0.20;99.90;;;;;;5093489;28;20459;-51
2022/11/29 00:38:39;;;;;;;95.22;46.22;;;-0.20;99.90;;;;;;5093495;28;20137;-51
2022/11/29 00:41:05;;;;;;;103.22;49.15;;;-0.20;99.90;;;;;;5062121;28;20024;-52
2022/11/29 00:43:31;;;;;;;104.03;47.92;;;-0.20;99.90;;;;;;5073169;28;20029;-53
2022/11/29 00:45:57;;;;;;;99.55;48.08;;;-0.30;99.90;;;;;;5073056;28;20039;-53
2022/11/29 00:48:22;;;;;;;95.55;48.55;;;-0.20;99.90;;;;;;5073016;28;20020;-54
2022/11/29 00:50:48;;;;;;;96.13;48.90;;;-0.20;99.90;;;;;;5072975;28;20024;-53
2022/11/29 00:53:14;;;;;;;94.68;47.72;;;-0.20;99.90;;;;;;5072715;28;20064;-52
2022/11/29 00:55:39;;;;;;;101.90;50.25;;;-0.20;99.90;;;;;;5073171;28;20063;-52
2022/11/29 00:58:05;;;;;;;90.90;47.70;;;-0.20;99.90;;;;;;5072810;28;20028;-53
2022/11/29 01:00:30;;;;;;;97.57;47.67;;;-0.30;99.90;;;;;;5072965;28;20037;-53
2022/11/29 01:02:56;;;;;;;103.07;49.55;;;-0.30;99.90;;;;;;5072836;28;20032;-53
2022/11/29 01:05:22;;;;;;;111.05;51.20;;;-0.30;99.90;;;;;;5072677;28;20024;-53
2022/11/29 01:07:47;;;;;;;96.97;49.65;;;-0.30;99.90;;;;;;5072692;28;20574;-53
2022/11/29 01:10:13;;;;;;;99.88;50.08;;;-0.30;99.90;;;;;;5054454;28;20032;-52
2022/11/29 01:12:39;;;;;;;101.60;50.25;;;-0.30;99.90;;;;;;5071488;28;20151;-53
2022/11/29 01:15:06;;;;;;;98.35;50.55;;;-0.30;99.90;;;;;;5072683;28;20105;-52
2022/11/29 01:17:36;;;;;;;100.35;50.13;;;-0.30;99.90;;;;;;5072544;28;20029;-51
2022/11/29 01:20:03;;;;;;;97.38;48.10;;;-0.40;99.90;;;;;;5072480;28;20025;-52
2022/11/29 01:22:29;;;;;;;105.07;52.58;;;-0.30;99.90;;;;;;5072296;28;20035;-53
2022/11/29 01:24:54;;;;;;;102.45;49.45;;;-0.30;99.90;;;;;;5054597;28;20391;-53
2022/11/29 01:27:20;;;;;;;97.32;48.45;;;-0.40;99.90;;;;;;5054646;28;20490;-52
2022/11/29 01:29:46;;;;;;;100.10;51.22;;;-0.30;99.90;;;;;;5072259;28;20059;-52
2022/11/29 01:32:11;;;;;;;106.70;50.38;;;-0.30;99.90;;;;;;5072208;28;20044;-53
2022/11/29 01:34:38;;;;;;;96.45;48.03;;;-0.40;99.90;;;;;;5072172;28;20521;-52
2022/11/29 01:37:04;;;;;;;98.97;50.90;;;-0.40;99.90;;;;;;5072357;28;20017;-53
2022/11/29 01:39:29;;;;;;;96.32;47.47;;;-0.40;99.90;;;;;;5072362;28;20106;-53
2022/11/29 01:41:55;;;;;;;97.15;50.17;;;-0.40;99.90;;;;;;5091884;28;20391;-52
2022/11/29 01:44:20;;;;;;;89.10;49.70;;;-0.40;99.90;;;;;;5092342;28;20030;-54
2022/11/29 01:46:47;;;;;;;103.07;52.28;;;-0.40;99.90;;;;;;5092472;28;20433;-52
2022/11/29 01:49:44;;;;;;;113.10;55.92;;;-0.40;99.90;;;;;;5091827;28;20032;-53
2022/11/29 01:52:12;;;;;;;101.75;52.80;;;-0.40;99.90;;;;;;5054023;28;20089;-53
2022/11/29 01:54:42;;;;;;;114.00;59.40;;;-0.40;99.90;;;;;;5092193;28;20077;-52
2022/11/29 01:57:08;;;;;;;98.45;53.67;;;-0.40;99.90;;;;;;5092055;28;20078;-52
2022/11/29 01:59:40;;;;;;;108.18;55.17;;;-0.40;99.90;;;;;;5092102;28;20048;-52
2022/11/29 02:02:11;;;;;;;111.85;55.28;;;-0.40;99.90;;;;;;5073892;28;20386;-52
2022/11/29 02:04:40;;;;;;;100.18;53.03;;;-0.40;99.90;;;;;;5092078;28;20085;-52
2022/11/29 02:07:08;;;;;;;102.60;49.28;;;-0.40;99.90;;;;;;5091856;28;20112;-51
2022/11/29 02:09:35;;;;;;;101.55;49.58;;;-0.40;99.90;;;;;;5091909;28;20024;-52
2022/11/29 02:12:23;;;;;;;99.45;50.25;;;-0.40;99.90;;;;;;5091797;28;20062;-52
2022/11/29 02:14:58;;;;;;;102.25;49.88;;;-0.50;99.90;;;;;;5091724;28;20540;-53
2022/11/29 02:17:35;;;;;;;108.22;52.92;;;-0.50;99.90;;;;;;5073400;28;20032;-51
2022/11/29 02:20:10;;;;;;;108.57;59.00;;;-0.50;99.90;;;;;;5091443;28;20098;-51
2022/11/29 02:22:40;;;;;;;111.22;57.30;;;-0.40;99.90;;;;;;5084368;28;20089;-52
2022/11/29 02:25:23;;;;;;;104.75;53.50;;;-0.50;99.90;;;;;;5074154;28;20028;-52
2022/11/29 02:28:24;;;;;;;108.95;58.17;;;-0.50;99.90;;;;;;5077727;28;20028;-52
2022/11/29 02:31:09;;;;;;;125.03;59.70;;;-0.50;99.90;;;;;;5091033;28;20136;-53
2022/11/29 02:33:43;;;;;;;121.25;61.88;;;-0.50;99.90;;;;;;5091521;28;20127;-52
2022/11/29 02:36:33;;;;;;;119.10;60.33;;;-0.50;99.90;;;;;;5091167;28;20140;-53
2022/11/29 02:39:11;;;;;;;124.03;59.53;;;-0.50;99.90;;;;;;5091368;28;20054;-53
2022/11/29 02:41:50;;;;;;;112.40;58.08;;;-0.60;99.90;;;;;;5073722;28;20017;-53
2022/11/29 02:44:33;;;;;;;114.20;57.83;;;-0.60;99.90;;;;;;5071010;28;20064;-51
2022/11/29 02:47:23;;;;;;;122.00;62.45;;;-0.60;99.90;;;;;;5071002;28;20202;-53
2022/11/29 02:49:57;;;;;;;115.15;61.97;;;-0.60;99.90;;;;;;5071031;28;20031;-51
2022/11/29 02:52:59;;;;;;;122.00;64.63;;;-0.60;99.90;;;;;;5070399;28;20494;-53
2022/11/29 02:55:39;;;;;;;119.93;61.08;;;-0.70;99.90;;;;;;5070695;28;20036;-51
2022/11/29 02:58:26;;;;;;;118.85;61.00;;;-0.60;99.90;;;;;;5070727;28;20032;-52
2022/11/29 03:00:58;;;;;;;114.13;58.43;;;-0.70;99.90;;;;;;5070999;28;20047;-53
2022/11/29 03:03:32;;;;;;;120.70;62.58;;;-0.70;99.90;;;;;;5070481;28;20417;-53
2022/11/29 03:06:14;;;;;;;114.68;62.03;;;-0.60;99.90;;;;;;5070465;28;20028;-53
2022/11/29 03:08:48;;;;;;;124.20;62.20;;;-0.60;99.90;;;;;;5070379;28;20148;-52
2022/11/29 03:11:34;;;;;;;112.82;60.03;;;-0.70;99.90;;;;;;5070517;28;20043;-52
2022/11/29 03:14:09;;;;;;;110.82;56.85;;;-0.70;99.90;;;;;;5070325;28;20043;-53
2022/11/29 03:16:56;;;;;;;116.40;57.97;;;-0.70;99.90;;;;;;5074876;28;20084;-53
2022/11/29 03:19:48;;;;;;;114.65;58.90;;;-0.80;99.90;;;;;;5072265;28;20379;-52
2022/11/29 03:22:20;;;;;;;109.45;57.28;;;-0.70;99.90;;;;;;5090290;28;20016;-54
2022/11/29 03:25:27;;;;;;;120.53;61.78;;;-0.80;99.90;;;;;;5088899;28;20032;-52
2022/11/29 03:28:02;;;;;;;113.53;57.40;;;-0.70;99.90;;;;;;5021629;28;20075;-53
2022/11/29 03:30:29;;;;;;;110.35;57.40;;;-0.70;99.90;;;;;;5069930;28;20098;-53
2022/11/29 03:33:10;;;;;;;113.90;56.53;;;-0.70;99.90;;;;;;5069951;28;20072;-53
2022/11/29 03:35:54;;;;;;;115.18;58.05;;;-0.70;99.90;;;;;;5069569;28;20052;-54
2022/11/29 03:38:22;;;;;;;105.07;55.47;;;-0.80;99.90;;;;;;5070085;28;20032;-53
2022/11/29 03:40:56;;;;;;;115.05;58.53;;;-0.80;99.90;;;;;;5070072;28;20759;-53
2022/11/29 03:43:44;;;;;;;122.82;62.63;;;-0.80;99.90;;;;;;5070142;28;20028;-54
2022/11/29 03:46:26;;;;;;;130.02;62.75;;;-0.80;99.90;;;;;;5070054;28;20055;-53
2022/11/29 03:49:02;;;;;;;115.40;58.00;;;-0.70;99.90;;;;;;5070005;28;20132;-52
2022/11/29 03:51:50;;;;;;;113.50;57.95;;;-0.80;99.90;;;;;;5070006;28;20387;-51
2022/11/29 03:54:25;;;;;;;111.95;54.92;;;-0.70;99.90;;;;;;5069794;28;20052;-52
2022/11/29 03:56:51;;;;;;;111.70;57.00;;;-0.80;99.90;;;;;;5069858;28;20017;-53
2022/11/29 03:59:53;;;;;;;111.18;57.58;;;-0.90;99.90;;;;;;5069751;28;20484;-53
2022/11/29 04:02:37;;;;;;;110.65;56.10;;;-0.90;99.90;;;;;;5069734;28;20039;-51
2022/11/29 04:05:15;;;;;;;119.47;59.80;;;-0.90;99.90;;;;;;5069641;28;20499;-55
2022/11/29 04:07:46;;;;;;;;;;;-0.90;99.90;;;;;;5051818;28;20064;-54
2022/11/29 04:10:49;;;;;;;116.95;56.67;;;-0.90;99.90;;;;;;5069862;28;19904;-54
2022/11/29 04:13:36;;;;;;;124.80;61.03;;;-0.90;99.90;;;;;;5051534;28;20044;-55
2022/11/29 04:16:44;;;;;;;127.72;60.22;;;-0.90;99.90;;;;;;5051629;28;20023;-54
2022/11/29 04:19:33;;;;;;;119.05;60.35;;;-0.90;99.90;;;;;;5069602;28;20093;-55
2022/11/29 04:22:19;;;;;;;121.95;61.35;;;-0.90;99.90;;;;;;5069279;28;20396;-52
2022/11/29 04:25:22;;;;;;;122.15;59.85;;;-1.00;99.90;;;;;;5069562;28;20024;-53
2022/11/29 04:28:07;;;;;;;123.93;58.65;;;-1.00;99.90;;;;;;5068382;28;20108;-53
2022/11/29 04:30:46;;;;;;;118.95;59.40;;;-1.00;99.90;;;;;;5069758;28;20124;-54
2022/11/29 04:33:29;;;;;;;126.53;64.70;;;-1.00;99.90;;;;;;5051530;28;20072;-52
2022/11/29 04:36:10;;;;;;;127.85;61.85;;;-1.00;99.90;;;;;;5069247;28;20020;-55
2022/11/29 04:38:47;;;;;;;121.40;62.20;;;-1.00;99.90;;;;;;5069538;28;20075;-53
2022/11/29 04:41:26;;;;;;;131.00;60.90;;;-1.00;99.90;;;;;;5069430;28;20024;-53
2022/11/29 04:44:06;;;;;;;123.22;60.83;;;-1.10;99.90;;;;;;5069572;28;20056;-54
2022/11/29 04:46:39;;;;;;;125.90;62.45;;;-1.10;99.90;;;;;;5071233;28;20388;-53
2022/11/29 04:49:16;;;;;;;123.18;64.10;;;-1.00;99.90;;;;;;5054988;28;20020;-55
2022/11/29 04:52:04;;;;;;;122.78;62.90;;;-1.00;99.90;;;;;;5072997;28;20471;-54
2022/11/29 04:54:35;;;;;;;129.77;63.53;;;-1.00;99.90;;;;;;5072880;28;20043;-53
2022/11/29 04:57:11;;;;;;;130.80;64.97;;;-1.10;99.90;;;;;;5072827;28;20023;-53
2022/11/29 04:59:50;;;;;;;123.38;60.90;;;-1.00;99.90;;;;;;5073139;28;20041;-52
2022/11/29 05:02:35;;;;;;;123.78;58.70;;;-1.10;99.90;;;;;;5055859;28;20676;-52
2022/11/29 05:05:29;;;;;;;125.15;60.05;;;-1.10;99.90;;;;;;5072549;28;20078;-53
2022/11/29 05:08:26;;;;;;;131.15;62.17;;;-1.10;99.90;;;;;;5072715;28;20107;-52
2022/11/29 05:11:10;;;;;;;120.80;60.30;;;-1.00;99.90;;;;;;5072799;28;20028;-55
2022/11/29 05:14:00;;;;;;;132.10;59.78;;;-1.00;99.90;;;;;;5072465;28;20131;-54
2022/11/29 05:16:44;;;;;;;117.38;57.88;;;-1.10;99.90;;;;;;5074187;28;20020;-54
2022/11/29 05:19:34;;;;;;;119.30;56.92;;;-1.10;99.90;;;;;;5074413;28;20115;-55
2022/11/29 05:22:30;;;;;;;104.55;55.80;;;-1.10;99.90;;;;;;5092655;28;20028;-53
2022/11/29 05:25:04;;;;;;;111.97;55.90;;;-1.10;99.90;;;;;;5092612;28;20066;-52
2022/11/29 05:27:35;;;;;;;114.03;55.85;;;-1.10;99.90;;;;;;5074591;28;20596;-54
2022/11/29 05:30:06;;;;;;;112.00;56.80;;;-1.10;99.90;;;;;;5092162;28;20044;-53
2022/11/29 05:32:38;;;;;;;113.85;58.15;;;-1.10;99.90;;;;;;5092194;28;20031;-52
2022/11/29 05:35:35;;;;;;;110.68;56.30;;;-1.10;99.90;;;;;;5092582;28;20057;-55
2022/11/29 05:38:18;;;;;;;105.50;54.28;;;-1.10;99.90;;;;;;5074116;28;20060;-55
2022/11/29 05:40:57;;;;;;;110.07;56.50;;;-1.20;99.90;;;;;;5092547;28;20031;-55
2022/11/29 05:43:31;;;;;;;108.07;55.22;;;-1.20;99.90;;;;;;5074020;28;20020;-54
2022/11/29 05:46:15;;;;;;;108.35;55.15;;;-1.20;99.90;;;;;;5092306;28;20081;-54
2022/11/29 05:49:19;;;;;;;112.45;55.33;;;-1.20;99.90;;;;;;5091898;28;20542;-54
2022/11/29 05:52:03;;;;;;;118.15;56.97;;;-1.20;99.90;;;;;;5092490;28;20055;-54
2022/11/29 05:54:31;;;;;;;114.18;56.38;;;-1.30;99.90;;;;;;5091887;28;20461;-51
2022/11/29 05:57:25;;;;;;;112.50;55.33;;;-1.30;99.90;;;;;;5092133;28;20032;-51
2022/11/29 05:59:54;;;;;;;119.25;57.33;;;-1.30;99.90;;;;;;5091893;28;20032;-54
2022/11/29 06:02:26;;;;;;;112.90;53.35;;;-1.30;99.90;;;;;;5088245;28;20040;-52
2022/11/29 06:05:22;;;;;;;113.50;57.00;;;-1.30;99.90;;;;;;5080129;28;20021;-53
2022/11/29 06:07:48;;;;;;;116.15;59.17;;;-1.30;99.90;;;;;;5080455;28;20039;-52
2022/11/29 06:10:22;;;;;;;117.72;60.47;;;-1.40;99.90;;;;;;5085707;28;20024;-52
2022/11/29 06:13:15;;;;;;;117.60;59.50;;;-1.40;99.90;;;;;;5085162;28;20024;-53
2022/11/29 06:15:55;;;;;;;117.22;57.92;;;-1.40;99.90;;;;;;5042694;28;20036;-54
2022/11/29 06:18:36;;;;;;;110.32;58.55;;;-1.30;99.90;;;;;;5080687;28;20040;-53
2022/11/29 06:21:12;;;;;;;112.30;58.00;;;-1.40;99.90;;;;;;5064140;28;20144;-54
2022/11/29 06:24:25;;;;;;;122.35;61.13;;;-1.40;99.90;;;;;;5080718;28;20028;-55
2022/11/29 06:27:17;;;;;;;125.75;61.25;;;-1.40;99.90;;;;;;5026207;28;20037;-54
2022/11/29 06:30:01;;;;;;;123.80;59.53;;;-1.40;99.90;;;;;;5079417;28;20037;-53
2022/11/29 06:32:49;;;;;;;123.45;57.65;;;-1.40;99.90;;;;;;5080016;28;20108;-51
2022/11/29 06:35:32;;;;;;;123.15;59.78;;;-1.40;99.90;;;;;;5086578;28;20036;-54
2022/11/29 06:38:32;;;;;;;128.13;63.15;;;-1.40;99.90;;;;;;5081236;28;20511;-54
2022/11/29 06:40:58;;;;;;;122.75;62.50;;;-1.40;99.90;;;;;;5041355;28;20062;-55
2022/11/29 06:43:25;;;;;;;135.77;65.50;;;-1.40;99.90;;;;;;5090088;28;20704;-53
2022/11/29 06:46:02;;;;;;;132.52;62.35;;;-1.50;99.90;;;;;;5089928;28;20032;-54
2022/11/29 06:48:37;;;;;;;129.30;62.78;;;-1.50;99.90;;;;;;5089815;28;20028;-52
2022/11/29 06:51:34;;;;;;;138.77;64.80;;;-1.40;99.90;;;;;;5084335;28;20020;-62
2022/11/29 06:54:14;;;;;;;130.00;63.53;;;-1.50;99.90;;;;;;5087609;28;20032;-54
2022/11/29 06:56:51;;;;;;;132.10;62.47;;;-1.40;99.90;;;;;;5087839;28;20020;-53
2022/11/29 06:59:32;;;;;;;132.18;64.28;;;-1.40;99.90;;;;;;5087506;28;20483;-52
2022/11/29 07:02:24;;;;;;;133.07;63.35;;;-1.40;99.90;;;;;;5087853;28;20020;-53
2022/11/29 07:05:01;;;;;;;138.75;65.45;;;-1.40;99.90;;;;;;5046766;28;20520;-55
2022/11/29 07:07:27;;;;;;;149.20;69.47;;;-1.30;99.90;;;;;;5085915;28;20028;-53
2022/11/29 07:09:58;;;;;;;148.07;70.75;;;-1.20;99.90;;;;;;5087693;28;20059;-55
2022/11/29 07:12:24;;;;;;;149.48;71.22;;;-1.20;99.90;;;;;;5088725;28;20051;-54
2022/11/29 07:14:50;;;;;;;151.75;70.78;;;-1.20;99.90;;;;;;5089992;28;20024;-55
2022/11/29 07:17:50;;;;;;;151.85;68.25;;;-1.10;99.90;;;;;;5071205;28;20117;-54
2022/11/29 07:20:35;;;;;;;136.27;67.55;;;-1.10;99.90;;;;;;5089625;28;20020;-53
2022/11/29 07:23:24;;;;;;;137.45;66.95;;;-1.00;99.90;;;;;;5089381;28;20420;-52
2022/11/29 07:26:04;;;;;;;140.55;63.25;;;-0.90;99.90;;;;;;5089663;28;20475;-52
2022/11/29 07:28:39;;;;;;;138.52;66.32;;;-0.80;99.90;;;;;;5089406;28;20107;-53
2022/11/29 07:31:10;;;;;;;131.10;62.53;;;-0.80;99.90;;;;;;5071597;28;20076;-54
2022/11/29 07:33:42;;;;;;;128.27;63.58;;;-0.70;99.90;;;;;;5081297;28;20035;-51
2022/11/29 07:36:30;;;;;;;126.95;61.72;;;-0.70;99.90;;;;;;5088206;28;20384;-52
2022/11/29 07:38:58;;;;;;;128.88;61.95;;;-0.60;99.90;;;;;;5089026;28;20134;-51
2022/11/29 07:41:34;;;;;;;116.53;60.40;;;-0.50;99.90;;;;;;5087863;28;20032;-53
2022/11/29 07:44:07;;;;;;;126.38;62.53;;;-0.50;99.90;;;;;;5088410;28;20028;-54
2022/11/29 07:46:32;;;;;;;129.85;62.25;;;-0.40;99.90;;;;;;5088765;28;20051;-52
2022/11/29 07:48:58;;;;;;;115.95;61.20;;;-0.30;99.90;;;;;;5070412;28;20109;-51
2022/11/29 07:51:24;;;;;;;115.78;63.03;;;-0.20;99.90;;;;;;5087836;28;20475;-52
2022/11/29 07:53:50;;;;;;;121.20;63.30;;;-0.20;99.90;;;;;;5086943;28;20051;-52
2022/11/29 07:56:15;;;;;;;112.97;61.58;;;-0.10;99.90;;;;;;5088157;28;20405;-51
2022/11/29 07:58:41;;;;;;;122.38;62.17;;;0.00;99.90;;;;;;5088682;28;20387;-53
2022/11/29 08:01:07;;;;;;;124.57;64.18;;;0.00;99.90;;;;;;5088736;28;20047;-55
2022/11/29 08:03:34;;;;;;;117.13;60.67;;;0.10;99.90;;;;;;5088894;28;20028;-54
2022/11/29 08:06:01;;;;;;;124.88;62.40;;;0.20;99.90;;;;;;5088945;28;20024;-52
2022/11/29 08:08:26;;;;;;;118.82;63.80;;;0.20;99.90;;;;;;5089188;28;20036;-53
2022/11/29 08:10:52;;;;;;;109.15;58.58;;;0.40;99.90;;;;;;5089404;28;20017;-53
2022/11/29 08:13:19;;;;;;;105.80;57.83;;;0.50;99.90;;;;;;5071008;28;20517;-53
2022/11/29 08:15:45;;;;;;;111.18;57.90;;;0.50;99.90;;;;;;5089577;28;20680;-52
2022/11/29 08:18:11;;;;;;;112.90;57.92;;;0.60;99.90;;;;;;5089156;28;20532;-53
2022/11/29 08:20:38;;;;;;;115.35;59.75;;;0.70;99.90;;;;;;5089389;28;20032;-53
2022/11/29 08:23:03;;;;;;;117.80;59.88;;;0.80;99.90;;;;;;5092982;28;20023;-53
2022/11/29 08:25:29;;;;;;;116.22;62.50;;;0.80;99.90;;;;;;5093073;28;20024;-52
2022/11/29 08:27:55;;;;;;;112.35;62.55;;;0.90;99.90;;;;;;5092960;28;20372;-54
2022/11/29 08:30:21;;;;;;;116.60;65.35;;;1.00;99.90;;;;;;5092541;28;20086;-54
2022/11/29 08:32:48;;;;;;;117.77;64.73;;;1.20;99.90;;;;;;5093164;28;20097;-52
2022/11/29 08:35:14;;;;;;;;;;;1.40;99.90;;;;;;5094123;28;20495;-52
2022/11/29 08:37:40;;;;;;;108.78;58.58;;;1.50;99.90;;;;;;5093480;28;19919;-53
2022/11/29 08:40:06;;;;;;;113.50;62.10;;;1.60;99.90;;;;;;5075299;28;20067;-53
2022/11/29 08:42:32;;;;;;;117.63;60.78;;;1.70;99.90;;;;;;5075211;28;20544;-51
2022/11/29 08:44:58;;;;;;;107.65;62.92;;;1.90;99.90;;;;;;5093378;28;20108;-53
2022/11/29 08:47:35;;;;;;;110.22;58.88;;;2.00;99.90;;;;;;5075140;28;20030;-54
2022/11/29 08:50:16;;;;;;;100.30;58.50;;;2.40;99.90;;;;;;5085866;28;20063;-53
2022/11/29 08:55:34;;;;;;;95.97;52.50;;;2.50;99.90;;;;;;5072779;28;20038;-54
2022/11/29 08:58:11;;;;;;;102.90;55.05;;;2.50;99.90;;;;;;5054895;28;20028;-54
2022/11/29 09:00:38;;;;;;;107.10;60.30;;;2.60;99.90;;;;;;5072738;28;20111;-53
2022/11/29 09:05:50;;;;;;;103.00;56.63;;;3.20;99.90;;;;;;5073237;28;20035;-52
2022/11/29 09:08:17;;;;;;;95.67;54.33;;;3.40;99.90;;;;;;5072259;28;20057;-52
2022/11/29 09:10:43;;;;;;;101.15;56.53;;;3.40;99.90;;;;;;5054450;28;20495;-56
2022/11/29 09:13:09;;;;;;;94.25;52.58;;;3.20;99.90;;;;;;5072604;28;20169;-55
2022/11/29 09:15:40;;;;;;;95.15;54.17;;;3.10;99.90;;;;;;5072387;28;20193;-53
2022/11/29 09:18:06;;;;;;;96.57;55.47;;;3.00;99.90;;;;;;5072613;28;20039;-54
2022/11/29 09:20:32;;;;;;;87.75;50.25;;;3.00;99.90;;;;;;5072455;28;20032;-53
2022/11/29 09:22:59;;;;;;;89.97;50.70;;;3.10;99.90;;;;;;5071895;28;20032;-53
2022/11/29 09:25:26;;;;;;;97.68;53.55;;;3.00;99.90;;;;;;5071694;28;20056;-52
2022/11/29 09:27:51;;;;;;;93.90;52.88;;;3.10;99.90;;;;;;5070725;28;20113;-53
2022/11/29 09:30:18;;;;;;;94.88;53.30;;;2.90;99.90;;;;;;5072135;28;20064;-53
2022/11/29 09:32:45;;;;;;;89.97;54.10;;;3.20;99.90;;;;;;5071574;28;20039;-54
2022/11/29 09:35:11;;;;;;;96.28;54.60;;;3.00;99.90;;;;;;5072271;28;20090;-54
2022/11/29 09:37:40;;;;;;;92.00;52.47;;;2.90;99.90;;;;;;5054271;28;20044;-54
2022/11/29 09:40:06;;;;;;;100.25;58.15;;;3.10;99.90;;;;;;5072361;28;20028;-53
2022/11/29 09:42:35;;;;;;;94.13;55.40;;;3.10;99.90;;;;;;5072242;28;20483;-52
2022/11/29 09:45:13;;;;;;;94.22;53.67;;;2.90;99.90;;;;;;5071650;28;20064;-53
2022/11/29 09:47:59;;;;;;;88.78;48.92;;;2.80;99.90;;;;;;5071320;28;20021;-54
2022/11/29 09:50:31;;;;;;;93.82;50.65;;;2.50;99.90;;;;;;5060577;28;20636;-54
2022/11/29 09:53:14;;;;;;;87.20;45.95;;;2.70;99.90;;;;;;5092114;28;20169;-54
2022/11/29 09:56:15;;;;;;;84.65;44.88;;;2.80;99.90;;;;;;5092265;28;20024;-53
2022/11/29 09:59:12;;;;;;;88.88;43.20;;;2.60;99.90;;;;;;5092208;28;20032;-52
2022/11/29 10:01:43;;;;;;;87.03;43.22;;;2.50;99.90;;;;;;5092278;28;20020;-55
2022/11/29 10:04:17;;;;;;;84.68;41.58;;;2.60;99.90;;;;;;5091927;28;20028;-54
2022/11/29 10:07:13;;;;;;;79.00;40.60;;;2.40;99.90;;;;;;5092301;28;20078;-54
2022/11/29 10:09:49;;;;;;;79.22;42.50;;;2.50;99.90;;;;;;5081524;28;20028;-54
2022/11/29 10:12:33;;;;;;;83.25;42.95;;;2.70;99.90;;;;;;5091655;28;20054;-55
2022/11/29 10:15:09;;;;;;;82.25;40.30;;;2.90;99.90;;;;;;5091900;28;20525;-54
2022/11/29 10:17:41;;;;;;;79.63;43.58;;;3.00;99.90;;;;;;5091862;28;20024;-53
2022/11/29 10:20:17;;;;;;;80.90;42.72;;;2.90;99.90;;;;;;5092093;28;20059;-54
2022/11/29 10:23:01;;;;;;;88.13;48.60;;;2.90;99.90;;;;;;5091682;28;20020;-54
2022/11/29 10:25:33;;;;;;;114.32;60.90;;;3.10;99.90;;;;;;5091630;28;20540;-52
2022/11/29 10:27:59;;;;;;;109.32;60.50;;;3.20;99.90;;;;;;5091264;28;20020;-51
2022/11/29 10:30:24;;;;;;;93.75;54.65;;;3.20;99.90;;;;;;5091417;28;20071;-52
2022/11/29 10:32:56;;;;;;;92.30;51.90;;;3.50;99.90;;;;;;5091704;28;20511;-53
2022/11/29 10:35:22;;;;;;;85.18;43.97;;;4.00;99.90;;;;;;5073296;28;20110;-52
2022/11/29 10:37:51;;;;;;;85.60;45.50;;;4.60;99.90;;;;;;5091370;28;20024;-53
2022/11/29 10:40:19;;;;;;;82.68;48.08;;;4.70;99.90;;;;;;5091309;28;20039;-54
2022/11/29 10:42:48;;;;;;;87.57;47.50;;;4.80;99.90;;;;;;5091019;28;20020;-53
2022/11/29 10:45:32;;;;;;;77.03;42.58;;;4.70;99.90;;;;;;5091153;28;20030;-54
2022/11/29 10:48:03;;;;;;;82.53;42.67;;;4.10;99.90;;;;;;5091035;28;20023;-54
2022/11/29 10:50:32;;;;;;;78.25;41.55;;;3.90;99.90;;;;;;5084160;28;20047;-53
2022/11/29 10:53:05;;;;;;;72.32;39.28;;;3.70;99.90;;;;;;5070474;28;20064;-54
2022/11/29 10:55:52;;;;;;;79.47;40.83;;;3.50;99.90;;;;;;5052830;28;20039;-54
2022/11/29 10:58:26;;;;;;;74.57;38.03;;;3.60;99.90;;;;;;5070145;28;20039;-53
2022/11/29 11:01:05;;;;;;;80.18;40.85;;;3.70;99.90;;;;;;5070695;28;20032;-53
2022/11/29 11:03:42;;;;;;;69.18;36.47;;;3.80;99.90;;;;;;5070549;28;20024;-53
2022/11/29 11:06:08;;;;;;;69.60;36.85;;;3.60;99.90;;;;;;5052752;28;20074;-53
2022/11/29 11:08:34;;;;;;;73.13;38.35;;;3.70;99.90;;;;;;5070609;28;20446;-55
2022/11/29 11:11:03;;;;;;;72.43;38.33;;;3.40;99.90;;;;;;5070621;28;20082;-53
2022/11/29 11:13:30;;;;;;;69.65;37.00;;;3.30;99.90;;;;;;5070285;28;20047;-53
2022/11/29 11:16:09;;;;;;;72.78;39.83;;;3.20;99.90;;;;;;5070334;28;20039;-55
2022/11/29 11:18:36;;;;;;;76.07;39.42;;;3.00;99.90;;;;;;5070319;28;20110;-53
2022/11/29 11:21:02;;;;;;;79.25;39.78;;;3.00;99.90;;;;;;5070538;28;20044;-55
2022/11/29 11:23:31;;;;;;;81.95;41.72;;;2.80;99.90;;;;;;5070368;28;20054;-53
2022/11/29 11:26:10;;;;;;;71.93;38.05;;;2.80;99.90;;;;;;5070253;28;20028;-53
2022/11/29 11:28:39;;;;;;;76.75;39.70;;;2.70;99.90;;;;;;5070040;28;20463;-53
2022/11/29 11:31:08;;;;;;;82.85;43.90;;;2.80;99.90;;;;;;5070156;28;20531;-53
2022/11/29 11:33:44;;;;;;;79.90;40.83;;;2.70;99.90;;;;;;5070139;28;20036;-54
2022/11/29 11:36:25;;;;;;;75.85;40.03;;;2.70;99.90;;;;;;5070184;28;20043;-54
2022/11/29 11:38:56;;;;;;;89.28;45.70;;;2.80;99.90;;;;;;5070163;28;20056;-52
2022/11/29 11:44:37;;;;;;;80.45;40.60;;;2.70;99.90;;;;;;5070425;28;20090;-51
2022/11/29 11:47:05;;;;;;;75.68;40.35;;;2.60;99.90;;;;;;5051860;28;20408;-54
2022/11/29 11:49:44;;;;;;;80.10;40.55;;;2.60;99.90;;;;;;5052054;28;20025;-52
2022/11/29 11:52:19;;;;;;;85.22;44.80;;;2.70;99.90;;;;;;5070069;28;20079;-55
2022/11/29 11:54:51;;;;;;;79.72;41.85;;;2.70;99.90;;;;;;5078545;28;20039;-52
2022/11/29 11:57:18;;;;;;;88.88;42.75;;;2.70;99.90;;;;;;5089396;28;20016;-53
2022/11/29 11:59:48;;;;;;;75.35;39.70;;;2.70;99.90;;;;;;5080386;28;20499;-53
2022/11/29 12:02:36;;;;;;;85.53;42.13;;;2.70;99.90;;;;;;5069937;28;20103;-54
2022/11/29 12:05:10;;;;;;;76.32;38.53;;;2.70;99.90;;;;;;5069784;28;20081;-53
2022/11/29 12:07:54;;;;;;;73.53;38.03;;;2.70;99.90;;;;;;5072461;28;20031;-52
2022/11/29 12:10:23;;;;;;;71.50;36.15;;;2.80;99.90;;;;;;5069968;28;20036;-53
2022/11/29 12:12:51;;;;;;;68.90;36.25;;;2.60;99.90;;;;;;5075466;28;20067;-54
2022/11/29 12:15:42;;;;;;;;;;;2.70;99.90;;;;;;5080413;28;20034;-53
2022/11/29 12:18:23;;;;;;;75.80;36.45;;;2.80;99.90;;;;;;5079334;28;20357;-56
2022/11/29 12:21:08;;;;;;;72.97;35.40;;;2.90;99.90;;;;;;5074164;28;20029;-54
2022/11/29 12:23:52;;;;;;;68.05;34.38;;;3.20;99.90;;;;;;5069613;28;20081;-54
2022/11/29 12:26:31;;;;;;;64.30;34.33;;;3.30;99.90;;;;;;5069674;28;20082;-56
2022/11/29 12:28:58;;;;;;;65.00;34.60;;;3.40;99.90;;;;;;5069759;28;20051;-51
2022/11/29 12:31:48;;;;;;;62.78;33.83;;;3.40;99.90;;;;;;5068162;28;20055;-52
2022/11/29 12:34:29;;;;;;;64.47;32.70;;;3.50;99.90;;;;;;5066705;28;20543;-54
2022/11/29 12:37:13;;;;;;;59.83;33.17;;;3.60;99.90;;;;;;5068745;28;20017;-54
2022/11/29 12:39:51;;;;;;;57.85;31.42;;;4.60;99.90;;;;;;5069662;28;20016;-53
2022/11/29 12:42:40;;;;;;;59.55;32.58;;;4.20;99.90;;;;;;5068172;28;20029;-54
2022/11/29 12:45:32;;;;;;;63.10;33.65;;;4.20;99.90;;;;;;5067035;28;20028;-54
2022/11/29 12:48:24;;;;;;;60.00;32.70;;;4.30;99.90;;;;;;5067443;28;20024;-55
2022/11/29 12:51:14;;;;;;;61.65;32.70;;;4.50;99.90;;;;;;5073957;28;20123;-54
2022/11/29 12:54:18;;;;;;;64.97;33.53;;;4.60;99.90;;;;;;5069661;28;20115;-52
2022/11/29 12:56:48;;;;;;;59.20;32.55;;;4.40;99.90;;;;;;5086213;28;20039;-54
2022/11/29 12:59:53;;;;;;;59.80;33.63;;;4.10;99.90;;;;;;5067963;28;20020;-54
2022/11/29 13:02:33;;;;;;;65.57;34.85;;;4.00;99.90;;;;;;5068036;28;20103;-53
2022/11/29 13:05:14;;;;;;;63.00;34.20;;;3.90;99.90;;;;;;5079981;28;20028;-54
2022/11/29 13:07:57;;;;;;;62.33;32.50;;;3.90;99.90;;;;;;5070624;28;20069;-54
2022/11/29 13:10:41;;;;;;;65.93;34.28;;;3.80;99.90;;;;;;5082905;28;20032;-54
2022/11/29 13:13:18;;;;;;;58.92;33.10;;;3.70;99.90;;;;;;5081294;28;20076;-53
2022/11/29 13:15:56;;;;;;;65.57;35.30;;;3.80;99.90;;;;;;5093075;28;20039;-54
2022/11/29 13:18:49;;;;;;;62.42;34.20;;;3.60;99.90;;;;;;5078293;28;20035;-53
2022/11/29 13:21:19;;;;;;;64.40;33.95;;;3.50;99.90;;;;;;5072825;28;20017;-51